sensor_id;sensor_type;location;lat;lon;timestamp;pressure;altitude;pressure_sealevel;temperature;humidity
32109;BME280;18624;50.042;8.436;2024-02-23T00:01:52;98132.28;;;8.50;100.00
32109;BME280;18624;50.042;8.436;2024-02-23T00:04:18;98145.75;;;8.53;100.00
32109;BME280;18624;50.042;8.436;2024-02-23T00:06:45;98126.78;;;8.35;100.00
32109;BME280;18624;50.042;8.436;2024-02-23T00:09:12;98145.50;;;8.51;100.00
32109;BME280;18624;50.042;8.436;2024-02-23T00:11:41;98148.56;;;8.44;100.00
32109;BME280;18624;50.042;8.436;2024-02-23T00:14:11;98149.16;;;8.48;100.00
32109;BME280;18624;50.042;8.436;2024-02-23T00:16:41;98151.31;;;8.44;100.00
32109;BME280;18624;50.042;8.436;2024-02-23T00:19:08;98147.72;;;8.38;100.00
32109;BME280;18624;50.042;8.436;2024-02-23T00:21:38;98130.69;;;8.19;100.00
32109;BME280;18624;50.042;8.436;2024-02-23T00:24:06;98159.44;;;8.29;100.00
32109;BME280;18624;50.042;8.436;2024-02-23T00:26:32;98169.13;;;8.30;100.00
32109;BME280;18624;50.042;8.436;2024-02-23T00:28:59;98184.44;;;8.28;100.00
32109;BME280;18624;50.042;8.436;2024-02-23T00:31:25;98184.75;;;8.30;100.00
32109;BME280;18624;50.042;8.436;2024-02-23T00:33:52;98199.63;;;8.29;100.00
32109;BME280;18624;50.042;8.436;2024-02-23T00:36:18;98206.47;;;8.24;100.00
32109;BME280;18624;50.042;8.436;2024-02-23T00:38:45;98196.19;;;8.19;100.00
32109;BME280;18624;50.042;8.436;2024-02-23T00:41:11;98214.84;;;8.21;100.00
32109;BME280;18624;50.042;8.436;2024-02-23T00:43:41;98220.75;;;8.19;100.00
32109;BME280;18624;50.042;8.436;2024-02-23T00:46:08;98233.34;;;8.17;100.00
32109;BME280;18624;50.042;8.436;2024-02-23T00:48:35;98230.78;;;8.13;100.00
32109;BME280;18624;50.042;8.436;2024-02-23T00:51:02;98233.03;;;8.15;100.00
32109;BME280;18624;50.042;8.436;2024-02-23T00:53:30;98224.56;;;8.12;100.00
32109;BME280;18624;50.042;8.436;2024-02-23T00:55:58;98236.25;;;8.13;100.00
32109;BME280;18624;50.042;8.436;2024-02-23T00:58:24;98206.81;;;7.93;100.00
32109;BME280;18624;50.042;8.436;2024-02-23T01:00:51;98241.69;;;8.13;100.00
32109;BME280;18624;50.042;8.436;2024-02-23T01:03:17;98253.38;;;8.13;100.00
32109;BME280;18624;50.042;8.436;2024-02-23T01:05:43;98254.31;;;8.10;100.00
32109;BME280;18624;50.042;8.436;2024-02-23T01:08:10;98262.81;;;8.03;100.00
32109;BME280;18624;50.042;8.436;2024-02-23T01:10:37;98258.75;;;7.99;100.00
32109;BME280;18624;50.042;8.436;2024-02-23T01:13:03;98260.72;;;7.98;100.00
32109;BME280;18624;50.042;8.436;2024-02-23T01:15:31;98252.16;;;7.81;100.00
32109;BME280;18624;50.042;8.436;2024-02-23T01:17:58;98267.44;;;7.88;100.00
32109;BME280;18624;50.042;8.436;2024-02-23T01:20:24;98261.56;;;7.80;100.00
32109;BME280;18624;50.042;8.436;2024-02-23T01:22:51;98282.28;;;7.87;100.00
32109;BME280;18624;50.042;8.436;2024-02-23T01:25:17;98280.78;;;7.86;100.00
32109;BME280;18624;50.042;8.436;2024-02-23T01:27:44;98282.91;;;7.82;100.00
32109;BME280;18624;50.042;8.436;2024-02-23T01:30:11;98289.59;;;7.81;100.00
32109;BME280;18624;50.042;8.436;2024-02-23T01:32:37;98289.88;;;7.83;100.00
32109;BME280;18624;50.042;8.436;2024-02-23T01:35:06;98290.66;;;7.83;100.00
32109;BME280;18624;50.042;8.436;2024-02-23T01:37:33;98296.88;;;7.84;100.00
32109;BME280;18624;50.042;8.436;2024-02-23T01:40:00;98292.00;;;7.79;100.00
32109;BME280;18624;50.042;8.436;2024-02-23T01:42:26;98317.59;;;7.91;100.00
32109;BME280;18624;50.042;8.436;2024-02-23T01:44:53;98325.16;;;7.86;100.00
32109;BME280;18624;50.042;8.436;2024-02-23T01:47:25;98319.75;;;7.77;100.00
32109;BME280;18624;50.042;8.436;2024-02-23T01:49:54;98331.56;;;7.74;100.00
32109;BME280;18624;50.042;8.436;2024-02-23T01:52:22;98332.19;;;7.69;100.00
32109;BME280;18624;50.042;8.436;2024-02-23T01:54:49;98342.34;;;7.59;100.00
32109;BME280;18624;50.042;8.436;2024-02-23T01:57:16;98336.47;;;7.52;100.00
32109;BME280;18624;50.042;8.436;2024-02-23T02:00:03;98346.31;;;7.49;100.00
32109;BME280;18624;50.042;8.436;2024-02-23T02:02:35;98354.97;;;7.48;100.00
32109;BME280;18624;50.042;8.436;2024-02-23T02:05:02;98354.66;;;7.46;100.00
32109;BME280;18624;50.042;8.436;2024-02-23T02:07:29;98374.81;;;7.39;100.00
32109;BME280;18624;50.042;8.436;2024-02-23T02:09:56;98358.75;;;7.32;100.00
32109;BME280;18624;50.042;8.436;2024-02-23T02:12:29;98368.00;;;7.25;100.00
32109;BME280;18624;50.042;8.436;2024-02-23T02:14:55;98276.09;;;6.62;100.00
32109;BME280;18624;50.042;8.436;2024-02-23T02:17:22;98368.28;;;7.18;100.00
32109;BME280;18624;50.042;8.436;2024-02-23T02:19:48;98357.53;;;7.15;100.00
32109;BME280;18624;50.042;8.436;2024-02-23T02:22:15;98361.00;;;7.15;100.00
32109;BME280;18624;50.042;8.436;2024-02-23T02:24:41;98371.16;;;7.15;100.00
32109;BME280;18624;50.042;8.436;2024-02-23T02:27:10;98377.34;;;7.15;100.00
32109;BME280;18624;50.042;8.436;2024-02-23T02:29:36;98379.94;;;7.09;100.00
32109;BME280;18624;50.042;8.436;2024-02-23T02:32:03;98373.59;;;7.03;100.00
32109;BME280;18624;50.042;8.436;2024-02-23T02:34:29;98380.53;;;7.04;100.00
32109;BME280;18624;50.042;8.436;2024-02-23T02:36:56;98385.22;;;7.04;100.00
32109;BME280;18624;50.042;8.436;2024-02-23T02:39:22;98381.28;;;7.05;100.00
32109;BME280;18624;50.042;8.436;2024-02-23T02:41:49;98383.13;;;7.08;100.00
32109;BME280;18624;50.042;8.436;2024-02-23T02:44:15;98381.28;;;7.05;100.00
32109;BME280;18624;50.042;8.436;2024-02-23T02:46:42;98387.19;;;7.03;100.00
32109;BME280;18624;50.042;8.436;2024-02-23T02:49:09;98391.13;;;7.02;100.00
32109;BME280;18624;50.042;8.436;2024-02-23T02:51:35;98398.09;;;7.03;100.00
32109;BME280;18624;50.042;8.436;2024-02-23T02:54:02;98389.94;;;7.03;100.00
32109;BME280;18624;50.042;8.436;2024-02-23T02:56:29;98396.13;;;7.04;100.00
32109;BME280;18624;50.042;8.436;2024-02-23T02:58:55;98402.47;;;7.01;100.00
32109;BME280;18624;50.042;8.436;2024-02-23T03:01:22;98414.72;;;6.96;100.00
32109;BME280;18624;50.042;8.436;2024-02-23T03:03:48;98420.16;;;6.96;100.00
32109;BME280;18624;50.042;8.436;2024-02-23T03:06:15;98424.69;;;6.90;100.00
32109;BME280;18624;50.042;8.436;2024-02-23T03:08:42;98421.38;;;6.86;100.00
32109;BME280;18624;50.042;8.436;2024-02-23T03:11:09;98432.25;;;6.86;100.00
32109;BME280;18624;50.042;8.436;2024-02-23T03:13:35;98431.63;;;6.82;100.00
32109;BME280;18624;50.042;8.436;2024-02-23T03:16:02;98433.16;;;6.83;100.00
32109;BME280;18624;50.042;8.436;2024-02-23T03:18:28;98443.44;;;6.88;100.00
32109;BME280;18624;50.042;8.436;2024-02-23T03:20:55;98437.38;;;6.84;100.00
32109;BME280;18624;50.042;8.436;2024-02-23T03:23:21;98431.94;;;6.84;100.00
32109;BME280;18624;50.042;8.436;2024-02-23T03:25:48;98444.78;;;6.83;100.00
32109;BME280;18624;50.042;8.436;2024-02-23T03:28:14;98438.91;;;6.85;100.00
32109;BME280;18624;50.042;8.436;2024-02-23T03:30:41;98417.72;;;6.80;100.00
32109;BME280;18624;50.042;8.436;2024-02-23T03:33:07;98432.06;;;6.71;100.00
32109;BME280;18624;50.042;8.436;2024-02-23T03:35:34;98424.94;;;6.65;100.00
32109;BME280;18624;50.042;8.436;2024-02-23T03:38:01;98424.31;;;6.60;100.00
32109;BME280;18624;50.042;8.436;2024-02-23T03:40:28;98412.19;;;6.62;100.00
32109;BME280;18624;50.042;8.436;2024-02-23T03:42:54;98417.81;;;6.58;100.00
32109;BME280;18624;50.042;8.436;2024-02-23T03:45:21;98418.25;;;6.56;100.00
32109;BME280;18624;50.042;8.436;2024-02-23T03:47:47;98395.50;;;6.41;100.00
32109;BME280;18624;50.042;8.436;2024-02-23T03:50:14;98422.94;;;6.56;100.00
32109;BME280;18624;50.042;8.436;2024-02-23T03:52:40;98411.25;;;6.46;100.00
32109;BME280;18624;50.042;8.436;2024-02-23T03:55:07;98424.28;;;6.51;100.00
32109;BME280;18624;50.042;8.436;2024-02-23T03:57:34;98437.00;;;6.54;100.00
32109;BME280;18624;50.042;8.436;2024-02-23T04:00:01;98442.44;;;6.54;100.00
32109;BME280;18624;50.042;8.436;2024-02-23T04:02:38;98441.34;;;6.52;100.00
32109;BME280;18624;50.042;8.436;2024-02-23T04:05:05;98441.81;;;6.50;100.00
32109;BME280;18624;50.042;8.436;2024-02-23T04:07:32;98453.91;;;6.49;100.00
32109;BME280;18624;50.042;8.436;2024-02-23T04:09:58;98453.91;;;6.49;100.00
32109;BME280;18624;50.042;8.436;2024-02-23T04:12:25;98424.66;;;6.31;100.00
32109;BME280;18624;50.042;8.436;2024-02-23T04:14:51;98457.53;;;6.46;100.00
32109;BME280;18624;50.042;8.436;2024-02-23T04:17:18;98456.00;;;6.45;100.00
32109;BME280;18624;50.042;8.436;2024-02-23T04:19:45;98454.03;;;6.46;100.00
32109;BME280;18624;50.042;8.436;2024-02-23T04:22:11;98448.84;;;6.39;100.00
32109;BME280;18624;50.042;8.436;2024-02-23T04:24:39;98454.16;;;6.42;100.00
32109;BME280;18624;50.042;8.436;2024-02-23T04:27:06;98461.59;;;6.42;100.00
32109;BME280;18624;50.042;8.436;2024-02-23T04:29:32;98461.28;;;6.40;100.00
32109;BME280;18624;50.042;8.436;2024-02-23T04:32:00;98454.31;;;6.39;100.00
32109;BME280;18624;50.042;8.436;2024-02-23T04:34:27;98457.47;;;6.37;100.00
32109;BME280;18624;50.042;8.436;2024-02-23T04:36:54;98459.44;;;6.37;100.00
32109;BME280;18624;50.042;8.436;2024-02-23T04:39:21;98456.41;;;6.34;100.00
32109;BME280;18624;50.042;8.436;2024-02-23T04:41:47;98449.13;;;6.31;100.00
32109;BME280;18624;50.042;8.436;2024-02-23T04:44:14;98450.78;;;6.29;100.00
32109;BME280;18624;50.042;8.436;2024-02-23T04:46:40;98455.91;;;6.27;100.00
32109;BME280;18624;50.042;8.436;2024-02-23T04:49:07;98438.16;;;6.13;100.00
32109;BME280;18624;50.042;8.436;2024-02-23T04:51:33;98453.16;;;6.18;100.00
32109;BME280;18624;50.042;8.436;2024-02-23T04:54:00;98447.19;;;6.10;100.00
32109;BME280;18624;50.042;8.436;2024-02-23T04:56:26;98458.34;;;6.03;100.00
32109;BME280;18624;50.042;8.436;2024-02-23T04:58:53;98463.47;;;6.01;100.00
32109;BME280;18624;50.042;8.436;2024-02-23T05:01:19;98458.16;;;5.97;100.00
32109;BME280;18624;50.042;8.436;2024-02-23T05:03:46;98454.13;;;5.89;100.00
32109;BME280;18624;50.042;8.436;2024-02-23T05:06:12;98464.16;;;5.92;100.00
32109;BME280;18624;50.042;8.436;2024-02-23T05:08:39;98462.28;;;5.89;100.00
32109;BME280;18624;50.042;8.436;2024-02-23T05:11:06;98458.72;;;5.92;100.00
32109;BME280;18624;50.042;8.436;2024-02-23T05:13:33;98429.25;;;5.69;100.00
32109;BME280;18624;50.042;8.436;2024-02-23T05:15:59;98457.31;;;5.88;100.00
32109;BME280;18624;50.042;8.436;2024-02-23T05:18:25;98470.16;;;5.87;100.00
32109;BME280;18624;50.042;8.436;2024-02-23T05:20:52;98481.16;;;5.83;100.00
32109;BME280;18624;50.042;8.436;2024-02-23T05:23:20;98479.44;;;5.77;100.00
32109;BME280;18624;50.042;8.436;2024-02-23T05:25:46;98479.78;;;5.66;100.00
32109;BME280;18624;50.042;8.436;2024-02-23T05:28:13;98481.56;;;5.60;100.00
32109;BME280;18624;50.042;8.436;2024-02-23T05:30:39;98471.38;;;5.51;100.00
32109;BME280;18624;50.042;8.436;2024-02-23T05:33:07;98482.13;;;5.55;100.00
32109;BME280;18624;50.042;8.436;2024-02-23T05:35:33;98382.34;;;4.86;100.00
32109;BME280;18624;50.042;8.436;2024-02-23T05:38:00;98472.06;;;5.43;100.00
32109;BME280;18624;50.042;8.436;2024-02-23T05:40:27;98458.28;;;5.37;100.00
32109;BME280;18624;50.042;8.436;2024-02-23T05:42:53;98459.09;;;5.47;100.00
32109;BME280;18624;50.042;8.436;2024-02-23T05:45:21;98473.56;;;5.44;100.00
32109;BME280;18624;50.042;8.436;2024-02-23T05:47:48;98468.25;;;5.40;100.00
32109;BME280;18624;50.042;8.436;2024-02-23T05:50:15;98464.13;;;5.36;100.00
32109;BME280;18624;50.042;8.436;2024-02-23T05:52:42;98466.66;;;5.30;100.00
32109;BME280;18624;50.042;8.436;2024-02-23T05:55:08;98470.25;;;5.27;100.00
32109;BME280;18624;50.042;8.436;2024-02-23T05:57:35;98470.59;;;5.16;100.00
32109;BME280;18624;50.042;8.436;2024-02-23T06:00:02;98482.78;;;5.12;100.00
32109;BME280;18624;50.042;8.436;2024-02-23T06:02:37;98483.09;;;5.14;100.00
32109;BME280;18624;50.042;8.436;2024-02-23T06:05:04;98479.50;;;5.17;100.00
32109;BME280;18624;50.042;8.436;2024-02-23T06:07:34;98475.47;;;5.21;100.00
32109;BME280;18624;50.042;8.436;2024-02-23T06:10:01;98475.56;;;5.30;100.00
32109;BME280;18624;50.042;8.436;2024-02-23T06:12:27;98487.59;;;5.42;100.00
32109;BME280;18624;50.042;8.436;2024-02-23T06:14:54;98479.44;;;5.42;100.00
32109;BME280;18624;50.042;8.436;2024-02-23T06:17:22;98481.50;;;5.51;100.00
32109;BME280;18624;50.042;8.436;2024-02-23T06:19:49;98479.97;;;5.50;100.00
32109;BME280;18624;50.042;8.436;2024-02-23T06:22:16;98490.47;;;5.61;100.00
32109;BME280;18624;50.042;8.436;2024-02-23T06:24:47;98495.34;;;5.66;100.00
32109;BME280;18624;50.042;8.436;2024-02-23T06:27:14;98502.28;;;5.67;100.00
32109;BME280;18624;50.042;8.436;2024-02-23T06:29:40;98499.16;;;5.68;100.00
32109;BME280;18624;50.042;8.436;2024-02-23T06:32:06;98509.13;;;5.71;100.00
32109;BME280;18624;50.042;8.436;2024-02-23T06:34:34;98510.03;;;5.68;100.00
32109;BME280;18624;50.042;8.436;2024-02-23T06:37:00;98514.19;;;5.60;100.00
32109;BME280;18624;50.042;8.436;2024-02-23T06:39:27;98511.78;;;5.62;100.00
32109;BME280;18624;50.042;8.436;2024-02-23T06:41:53;98517.97;;;5.63;100.00
32109;BME280;18624;50.042;8.436;2024-02-23T06:44:20;98526.44;;;5.65;100.00
32109;BME280;18624;50.042;8.436;2024-02-23T06:46:46;98531.03;;;5.68;100.00
32109;BME280;18624;50.042;8.436;2024-02-23T06:49:13;98526.97;;;5.72;100.00
32109;BME280;18624;50.042;8.436;2024-02-23T06:51:40;98524.38;;;5.69;100.00
32109;BME280;18624;50.042;8.436;2024-02-23T06:54:07;98521.78;;;5.65;100.00
32109;BME280;18624;50.042;8.436;2024-02-23T06:56:34;98516.03;;;5.63;100.00
32109;BME280;18624;50.042;8.436;2024-02-23T06:59:01;98524.25;;;5.72;100.00
32109;BME280;18624;50.042;8.436;2024-02-23T07:01:27;98520.34;;;5.73;100.00
32109;BME280;18624;50.042;8.436;2024-02-23T07:03:54;98520.97;;;5.77;100.00
32109;BME280;18624;50.042;8.436;2024-02-23T07:06:20;98510.00;;;5.81;100.00
32109;BME280;18624;50.042;8.436;2024-02-23T07:08:47;98522.03;;;5.80;100.00
32109;BME280;18624;50.042;8.436;2024-02-23T07:11:13;98491.50;;;5.54;100.00
32109;BME280;18624;50.042;8.436;2024-02-23T07:13:43;98524.50;;;5.65;100.00
32109;BME280;18624;50.042;8.436;2024-02-23T07:16:09;98521.47;;;5.63;100.00
32109;BME280;18624;50.042;8.436;2024-02-23T07:18:36;98503.44;;;5.44;100.00
32109;BME280;18624;50.042;8.436;2024-02-23T07:21:02;98514.28;;;5.56;100.00
32109;BME280;18624;50.042;8.436;2024-02-23T07:23:29;98516.44;;;5.62;100.00
32109;BME280;18624;50.042;8.436;2024-02-23T07:25:55;98517.84;;;5.66;100.00
32109;BME280;18624;50.042;8.436;2024-02-23T07:28:22;98513.88;;;5.80;100.00
32109;BME280;18624;50.042;8.436;2024-02-23T07:30:49;98513.53;;;5.91;100.00
32109;BME280;18624;50.042;8.436;2024-02-23T07:33:15;98512.00;;;5.90;100.00
32109;BME280;18624;50.042;8.436;2024-02-23T07:35:42;98515.25;;;5.97;100.00
32109;BME280;18624;50.042;8.436;2024-02-23T07:38:09;98512.53;;;5.97;100.00
32109;BME280;18624;50.042;8.436;2024-02-23T07:40:36;98490.31;;;5.77;100.00
32109;BME280;18624;50.042;8.436;2024-02-23T07:43:02;98437.75;;;5.36;100.00
32109;BME280;18624;50.042;8.436;2024-02-23T07:45:29;98509.38;;;5.99;100.00
32109;BME280;18624;50.042;8.436;2024-02-23T07:47:55;98536.56;;;6.21;100.00
32109;BME280;18624;50.042;8.436;2024-02-23T07:50:22;98530.56;;;6.26;100.00
32109;BME280;18624;50.042;8.436;2024-02-23T07:52:49;98526.72;;;6.14;100.00
32109;BME280;18624;50.042;8.436;2024-02-23T07:55:15;98539.50;;;6.26;100.00
32109;BME280;18624;50.042;8.436;2024-02-23T07:57:43;98542.41;;;6.32;100.00
32109;BME280;18624;50.042;8.436;2024-02-23T08:00:10;98544.16;;;6.26;100.00
32109;BME280;18624;50.042;8.436;2024-02-23T08:02:40;98553.75;;;6.30;100.00
32109;BME280;18624;50.042;8.436;2024-02-23T08:05:07;98473.16;;;5.67;100.00
32109;BME280;18624;50.042;8.436;2024-02-23T08:07:34;98559.25;;;6.18;100.00
32109;BME280;18624;50.042;8.436;2024-02-23T08:10:01;98571.75;;;6.15;100.00
32109;BME280;18624;50.042;8.436;2024-02-23T08:12:29;98569.91;;;6.12;100.00
32109;BME280;18624;50.042;8.436;2024-02-23T08:14:56;98563.16;;;6.17;100.00
32109;BME280;18624;50.042;8.436;2024-02-23T08:17:22;98568.47;;;6.20;100.00
32109;BME280;18624;50.042;8.436;2024-02-23T08:19:49;98572.50;;;6.16;100.00
32109;BME280;18624;50.042;8.436;2024-02-23T08:22:15;98558.78;;;6.19;100.00
32109;BME280;18624;50.042;8.436;2024-02-23T08:24:42;98535.06;;;5.98;100.00
32109;BME280;18624;50.042;8.436;2024-02-23T08:27:08;98565.63;;;6.24;100.00
32109;BME280;18624;50.042;8.436;2024-02-23T08:29:37;98576.28;;;6.31;100.00
32109;BME280;18624;50.042;8.436;2024-02-23T08:32:04;98569.81;;;6.38;100.00
32109;BME280;18624;50.042;8.436;2024-02-23T08:34:31;98581.19;;;6.45;100.00
32109;BME280;18624;50.042;8.436;2024-02-23T08:36:58;98581.84;;;6.49;100.00
32109;BME280;18624;50.042;8.436;2024-02-23T08:39:24;98584.84;;;6.51;100.00
32109;BME280;18624;50.042;8.436;2024-02-23T08:41:52;98584.28;;;6.56;100.00
32109;BME280;18624;50.042;8.436;2024-02-23T08:44:18;98589.03;;;6.65;100.00
32109;BME280;18624;50.042;8.436;2024-02-23T08:46:45;98583.84;;;6.80;100.00
32109;BME280;18624;50.042;8.436;2024-02-23T08:49:11;98576.25;;;6.84;100.00
32109;BME280;18624;50.042;8.436;2024-02-23T08:51:38;98590.84;;;6.90;100.00
32109;BME280;18624;50.042;8.436;2024-02-23T08:54:04;98590.84;;;6.90;100.00
32109;BME280;18624;50.042;8.436;2024-02-23T08:56:39;98599.31;;;6.92;100.00
32109;BME280;18624;50.042;8.436;2024-02-23T08:59:08;98594.19;;;6.94;100.00
32109;BME280;18624;50.042;8.436;2024-02-23T09:01:35;98602.16;;;6.89;100.00
32109;BME280;18624;50.042;8.436;2024-02-23T09:04:02;98597.88;;;6.78;100.00
32109;BME280;18624;50.042;8.436;2024-02-23T09:06:29;98598.84;;;6.84;100.00
32109;BME280;18624;50.042;8.436;2024-02-23T09:08:55;98602.56;;;6.78;100.00
32109;BME280;18624;50.042;8.436;2024-02-23T09:11:22;98607.13;;;6.81;100.00
32109;BME280;18624;50.042;8.436;2024-02-23T09:13:49;98603.19;;;6.82;100.00
32109;BME280;18624;50.042;8.436;2024-02-23T09:16:15;98610.59;;;6.81;100.00
32109;BME280;18624;50.042;8.436;2024-02-23T09:18:42;98616.50;;;6.80;100.00
32109;BME280;18624;50.042;8.436;2024-02-23T09:21:09;98606.31;;;6.71;100.00
32109;BME280;18624;50.042;8.436;2024-02-23T09:23:35;98607.38;;;6.74;100.00
32109;BME280;18624;50.042;8.436;2024-02-23T09:26:08;98589.94;;;6.62;100.00
32109;BME280;18624;50.042;8.436;2024-02-23T09:28:35;98591.16;;;6.70;100.00
32109;BME280;18624;50.042;8.436;2024-02-23T09:31:01;98587.38;;;6.68;100.00
32109;BME280;18624;50.042;8.436;2024-02-23T09:33:29;98583.16;;;6.67;100.00
32109;BME280;18624;50.042;8.436;2024-02-23T09:35:57;98584.13;;;6.82;100.00
32109;BME280;18624;50.042;8.436;2024-02-23T09:38:24;98589.78;;;6.97;100.00
32109;BME280;18624;50.042;8.436;2024-02-23T09:40:51;98584.38;;;7.06;100.00
32109;BME280;18624;50.042;8.436;2024-02-23T09:43:21;98586.53;;;7.11;100.00
32109;BME280;18624;50.042;8.436;2024-02-23T09:45:51;98583.66;;;7.15;100.00
32109;BME280;18624;50.042;8.436;2024-02-23T09:48:18;98478.22;;;6.44;100.00
32109;BME280;18624;50.042;8.436;2024-02-23T09:50:47;98583.25;;;7.16;100.00
32109;BME280;18624;50.042;8.436;2024-02-23T09:53:14;98574.59;;;7.18;100.00
32109;BME280;18624;50.042;8.436;2024-02-23T09:55:42;98572.47;;;7.13;100.00
32109;BME280;18624;50.042;8.436;2024-02-23T09:58:10;98573.53;;;7.15;100.00
32109;BME280;18624;50.042;8.436;2024-02-23T10:00:39;98579.31;;;7.17;100.00
32109;BME280;18624;50.042;8.436;2024-02-23T10:03:06;98580.09;;;7.27;100.00
32109;BME280;18624;50.042;8.436;2024-02-23T10:05:32;98589.81;;;7.37;100.00
32109;BME280;18624;50.042;8.436;2024-02-23T10:08:04;98590.59;;;7.47;100.00
32109;BME280;18624;50.042;8.436;2024-02-23T10:10:34;98576.81;;;7.50;100.00
32109;BME280;18624;50.042;8.436;2024-02-23T10:13:01;98566.38;;;7.49;100.00
32109;BME280;18624;50.042;8.436;2024-02-23T10:15:31;98580.63;;;7.62;100.00
32109;BME280;18624;50.042;8.436;2024-02-23T10:17:58;98575.47;;;7.64;100.00
32109;BME280;18624;50.042;8.436;2024-02-23T10:20:25;98582.31;;;7.69;100.00
32109;BME280;18624;50.042;8.436;2024-02-23T10:22:51;98582.75;;;7.67;100.00
32109;BME280;18624;50.042;8.436;2024-02-23T10:25:20;98573.19;;;7.53;100.00
32109;BME280;18624;50.042;8.436;2024-02-23T10:27:47;98593.06;;;7.63;100.00
32109;BME280;18624;50.042;8.436;2024-02-23T10:30:14;98584.59;;;7.61;100.00
32109;BME280;18624;50.042;8.436;2024-02-23T10:32:41;98582.28;;;7.59;100.00
32109;BME280;18624;50.042;8.436;2024-02-23T10:35:14;98545.91;;;7.35;100.00
32109;BME280;18624;50.042;8.436;2024-02-23T10:37:43;98580.16;;;7.54;100.00
32109;BME280;18624;50.042;8.436;2024-02-23T10:40:12;98574.25;;;7.56;100.00
32109;BME280;18624;50.042;8.436;2024-02-23T10:42:40;98576.41;;;7.61;100.00
32109;BME280;18624;50.042;8.436;2024-02-23T10:45:12;98572.63;;;7.68;100.00
32109;BME280;18624;50.042;8.436;2024-02-23T10:47:39;98570.63;;;7.68;100.00
32109;BME280;18624;50.042;8.436;2024-02-23T10:50:07;98572.31;;;7.66;100.00
32109;BME280;18624;50.042;8.436;2024-02-23T10:52:35;98574.59;;;7.76;100.00
32109;BME280;18624;50.042;8.436;2024-02-23T10:55:02;98571.25;;;7.72;100.00
32109;BME280;18624;50.042;8.436;2024-02-23T10:57:31;98579.59;;;7.78;100.00
32109;BME280;18624;50.042;8.436;2024-02-23T10:59:58;98571.41;;;7.78;100.00
32109;BME280;18624;50.042;8.436;2024-02-23T11:02:27;98582.19;;;7.81;100.00
32109;BME280;18624;50.042;8.436;2024-02-23T11:04:57;98584.00;;;7.84;100.00
32109;BME280;18624;50.042;8.436;2024-02-23T11:07:24;98577.63;;;7.87;100.00
32109;BME280;18624;50.042;8.436;2024-02-23T11:09:58;98578.09;;;7.86;100.00
32109;BME280;18624;50.042;8.436;2024-02-23T11:12:26;98496.84;;;7.35;100.00
32109;BME280;18624;50.042;8.436;2024-02-23T11:14:57;98545.19;;;7.71;100.00
32109;BME280;18624;50.042;8.436;2024-02-23T11:17:26;98565.66;;;7.94;100.00
32109;BME280;18624;50.042;8.436;2024-02-23T11:19:54;98567.94;;;7.96;100.00
32109;BME280;18624;50.042;8.436;2024-02-23T11:22:32;98570.38;;;8.03;100.00
32109;BME280;18624;50.042;8.436;2024-02-23T11:25:06;98566.44;;;8.04;100.00
32109;BME280;18624;50.042;8.436;2024-02-23T11:27:33;98493.38;;;7.53;100.00
32109;BME280;18624;50.042;8.436;2024-02-23T11:30:05;98567.03;;;8.17;100.00
32109;BME280;18624;50.042;8.436;2024-02-23T11:32:59;98566.72;;;8.33;100.00
32109;BME280;18624;50.042;8.436;2024-02-23T11:35:27;98565.06;;;8.45;100.00
32109;BME280;18624;50.042;8.436;2024-02-23T11:37:56;98550.03;;;8.31;100.00
32109;BME280;18624;50.042;8.436;2024-02-23T11:40:26;98562.19;;;8.49;100.00
32109;BME280;18624;50.042;8.436;2024-02-23T11:42:54;98564.44;;;8.50;100.00
32109;BME280;18624;50.042;8.436;2024-02-23T11:45:21;98565.78;;;8.55;100.00
32109;BME280;18624;50.042;8.436;2024-02-23T11:47:48;98563.69;;;8.50;100.00
32109;BME280;18624;50.042;8.436;2024-02-23T11:50:14;98565.78;;;8.55;100.00
32109;BME280;18624;50.042;8.436;2024-02-23T11:52:43;98558.34;;;8.55;98.71
32109;BME280;18624;50.042;8.436;2024-02-23T11:55:09;98495.00;;;8.15;100.00
32109;BME280;18624;50.042;8.436;2024-02-23T11:57:36;98567.75;;;8.63;96.65
32109;BME280;18624;50.042;8.436;2024-02-23T12:00:13;98558.50;;;8.61;97.65
32109;BME280;18624;50.042;8.436;2024-02-23T12:02:40;98564.09;;;8.67;98.13
32109;BME280;18624;50.042;8.436;2024-02-23T12:05:07;98564.56;;;8.65;99.11
32109;BME280;18624;50.042;8.436;2024-02-23T12:07:34;98565.50;;;8.62;100.00
32109;BME280;18624;50.042;8.436;2024-02-23T12:10:01;98559.88;;;8.66;96.12
32109;BME280;18624;50.042;8.436;2024-02-23T12:12:30;98561.53;;;8.63;97.43
32109;BME280;18624;50.042;8.436;2024-02-23T12:14:56;98565.50;;;8.62;100.00
32109;BME280;18624;50.042;8.436;2024-02-23T12:17:23;98572.47;;;8.63;99.40
32109;BME280;18624;50.042;8.436;2024-02-23T12:19:49;98565.63;;;8.68;97.01
32109;BME280;18624;50.042;8.436;2024-02-23T12:22:20;98572.59;;;8.69;94.79
32109;BME280;18624;50.042;8.436;2024-02-23T12:24:46;98571.41;;;8.70;96.36
32109;BME280;18624;50.042;8.436;2024-02-23T12:27:16;98565.34;;;8.66;93.92
32109;BME280;18624;50.042;8.436;2024-02-23T12:29:53;98569.56;;;8.67;96.97
32109;BME280;18624;50.042;8.436;2024-02-23T12:32:21;98581.72;;;8.66;97.00
32109;BME280;18624;50.042;8.436;2024-02-23T12:34:48;98577.00;;;8.66;95.48
32109;BME280;18624;50.042;8.436;2024-02-23T12:37:23;98573.81;;;8.68;94.71
32109;BME280;18624;50.042;8.436;2024-02-23T12:39:49;98572.91;;;8.71;95.60
32109;BME280;18624;50.042;8.436;2024-02-23T12:42:17;98575.91;;;8.73;94.64
32109;BME280;18624;50.042;8.436;2024-02-23T12:44:44;98569.53;;;8.76;92.65
32109;BME280;18624;50.042;8.436;2024-02-23T12:47:11;98566.50;;;8.83;92.23
32109;BME280;18624;50.042;8.436;2024-02-23T12:49:37;98561.59;;;8.87;91.04
32109;BME280;18624;50.042;8.436;2024-02-23T12:52:06;98558.88;;;8.87;88.83
32109;BME280;18624;50.042;8.436;2024-02-23T12:54:33;98555.72;;;8.79;89.42
32109;BME280;18624;50.042;8.436;2024-02-23T12:56:59;98567.41;;;8.80;87.79
32109;BME280;18624;50.042;8.436;2024-02-23T12:59:26;98563.31;;;8.84;86.34
32109;BME280;18624;50.042;8.436;2024-02-23T13:01:52;98561.31;;;8.85;85.89